Webcam Flughafen St.Gallen-Altenrhein

Live-Bilder und Zeitraffer LSZR / ACH.

 

Live aus Altenrhein
LIVE
LSZR 210550Z 20002KT 7000 FEW018 14/13 Q1016 NOSIG RMK B
Zeitraffer heute
2020-09-21 00:14:58
LSZR 202150Z AUTO VRB01KT CAVOK 17/16 Q1015